Terminal Aerodrome Forecast
Issued by NWS

Home | Current Version | Previous Version | Text Only | Print | Product List | Glossary Off
Versions: 1 2 3 4 5 6 7 8 9 10 11 12

000
FTUS44 KTSA 200500
TAFMLC
TAF
KMLC 200520Z 2006/2106 15004KT P6SM BKN250
     FM201500 17008KT P6SM BKN045
     FM210000 16005KT P6SM BKN040 PROB30 2100/2106 5SM -TSRA
      BKN030CB=

USA.gov is the U.S. government's official web portal to all federal, state and local government web resources and services.